createdAt,value
2019-04-28T00:01:05.146Z,30.10
2019-04-28T00:03:32.109Z,30.00
2019-04-28T00:05:58.890Z,30.00
2019-04-28T00:08:25.825Z,30.00
2019-04-28T00:10:53.712Z,30.00
2019-04-28T00:13:20.957Z,30.00
2019-04-28T00:15:51.487Z,30.00
2019-04-28T00:18:19.399Z,30.00
2019-04-28T00:20:48.084Z,29.90
2019-04-28T00:23:32.097Z,29.90
2019-04-28T00:26:17.178Z,29.90
2019-04-28T00:28:44.077Z,29.90
2019-04-28T00:31:11.435Z,29.70
2019-04-28T00:33:38.193Z,29.70
2019-04-28T00:36:05.109Z,29.70
2019-04-28T00:38:32.152Z,29.60
2019-04-28T00:40:59.034Z,29.60
2019-04-28T00:43:26.937Z,29.60
2019-04-28T00:45:53.957Z,29.60
2019-04-28T00:48:20.970Z,29.60
2019-04-28T00:50:48.132Z,29.70
2019-04-28T00:53:16.023Z,29.70
2019-04-28T00:55:42.817Z,29.70
2019-04-28T00:58:10.908Z,29.70
2019-04-28T01:00:41.412Z,29.80
2019-04-28T01:03:08.197Z,29.80
2019-04-28T01:05:35.206Z,29.70
2019-04-28T01:08:03.158Z,29.70
2019-04-28T01:10:30.977Z,29.70
2019-04-28T01:12:57.864Z,29.70
2019-04-28T01:15:26.460Z,29.70
2019-04-28T01:17:58.081Z,29.70
2019-04-28T01:20:25.466Z,29.70
2019-04-28T01:22:52.510Z,29.70
2019-04-28T01:25:20.301Z,29.80
2019-04-28T01:27:51.967Z,29.80
2019-04-28T01:30:21.961Z,29.80
2019-04-28T01:32:51.261Z,29.80
2019-04-28T01:35:22.804Z,29.70
2019-04-28T01:37:50.516Z,29.70
2019-04-28T01:40:17.288Z,29.70
2019-04-28T01:42:44.368Z,29.80
2019-04-28T01:45:11.843Z,29.80
2019-04-28T01:47:40.509Z,29.80
2019-04-28T01:50:07.704Z,29.80
2019-04-28T01:52:34.848Z,29.70
2019-04-28T01:55:02.901Z,29.70
2019-04-28T01:57:30.969Z,29.70
2019-04-28T01:59:59.356Z,29.70
2019-04-28T02:02:26.384Z,29.70
2019-04-28T02:04:53.749Z,29.70
2019-04-28T02:07:20.637Z,29.70
2019-04-28T02:09:49.058Z,29.70
2019-04-28T02:12:15.861Z,29.70
2019-04-28T02:14:43.050Z,29.70
2019-04-28T02:17:10.448Z,29.70
2019-04-28T02:19:37.794Z,29.70
2019-04-28T02:22:06.580Z,29.70
2019-04-28T02:24:34.639Z,29.60
2019-04-28T02:27:01.630Z,29.70
2019-04-28T02:29:30.103Z,29.60
2019-04-28T02:31:57.466Z,29.60
2019-04-28T02:34:24.393Z,29.70
2019-04-28T02:36:56.358Z,29.70
2019-04-28T02:39:23.600Z,29.70
2019-04-28T02:41:51.349Z,29.70
2019-04-28T02:44:20.663Z,29.70
2019-04-28T02:46:47.130Z,29.60
2019-04-28T02:49:16.085Z,29.60
2019-04-28T02:51:50.476Z,29.60
2019-04-28T02:54:17.179Z,29.70
2019-04-28T02:56:43.871Z,29.80
2019-04-28T02:59:11.110Z,29.90
2019-04-28T03:01:40.745Z,29.90
2019-04-28T03:04:06.635Z,29.80
2019-04-28T03:06:33.946Z,29.80
2019-04-28T03:09:00.974Z,29.80
2019-04-28T03:11:28.338Z,29.80
2019-04-28T03:13:55.017Z,29.80
2019-04-28T03:16:23.229Z,29.80
2019-04-28T03:18:51.396Z,29.70
2019-04-28T03:21:24.512Z,29.70
2019-04-28T03:23:51.829Z,29.60
2019-04-28T03:26:21.469Z,29.60
2019-04-28T03:28:56.103Z,29.60
2019-04-28T03:32:07.613Z,29.50
2019-04-28T03:34:05.480Z,29.50
2019-04-28T03:36:33.422Z,29.50
2019-04-28T03:39:00.816Z,29.60
2019-04-28T03:41:31.094Z,29.60
2019-04-28T03:44:00.357Z,29.50
2019-04-28T03:46:30.463Z,29.60
2019-04-28T03:48:57.339Z,29.60
2019-04-28T03:51:24.121Z,29.60
2019-04-28T03:53:50.912Z,29.60
2019-04-28T03:56:17.840Z,29.60
2019-04-28T03:58:44.661Z,29.60
2019-04-28T04:01:11.526Z,29.60
2019-04-28T04:03:38.280Z,29.60
2019-04-28T04:06:11.325Z,29.70
2019-04-28T04:08:40.547Z,29.80
2019-04-28T04:11:10.904Z,29.80
2019-04-28T04:13:41.200Z,29.80
2019-04-28T04:16:20.534Z,29.90
2019-04-28T04:19:00.516Z,29.90
2019-04-28T04:21:26.494Z,29.90
2019-04-28T04:23:55.345Z,29.90
2019-04-28T04:26:21.870Z,29.90
2019-04-28T04:28:51.169Z,29.80
2019-04-28T04:31:17.133Z,29.70
2019-04-28T04:33:44.930Z,29.70
2019-04-28T04:36:12.087Z,29.60
2019-04-28T04:38:51.278Z,29.50
2019-04-28T04:41:17.635Z,29.50
2019-04-28T04:43:44.379Z,29.40
2019-04-28T04:46:15.616Z,29.40
2019-04-28T04:48:43.141Z,29.40
2019-04-28T04:51:10.804Z,29.40
2019-04-28T04:53:37.622Z,29.40
2019-04-28T04:56:04.301Z,29.50
2019-04-28T04:58:31.299Z,29.50
2019-04-28T05:01:00.676Z,29.50
2019-04-28T05:03:31.392Z,29.60
2019-04-28T05:05:59.704Z,29.60
2019-04-28T05:08:45.364Z,29.60
2019-04-28T05:11:12.038Z,29.60
2019-04-28T05:13:39.943Z,29.60
2019-04-28T05:16:06.709Z,29.60
2019-04-28T05:18:33.702Z,29.60
2019-04-28T05:21:00.498Z,29.60
2019-04-28T05:23:39.965Z,29.50
2019-04-28T05:26:07.976Z,29.50
2019-04-28T05:28:36.959Z,29.50
2019-04-28T05:31:03.865Z,29.50
2019-04-28T05:33:33.959Z,29.50
2019-04-28T05:36:03.050Z,29.50
2019-04-28T05:38:30.382Z,29.50
2019-04-28T05:41:02.772Z,29.50
2019-04-28T05:43:29.939Z,29.40
2019-04-28T05:45:56.845Z,29.40
2019-04-28T05:48:40.887Z,29.40
2019-04-28T05:51:19.892Z,29.40
2019-04-28T05:53:50.345Z,29.40
2019-04-28T05:56:20.360Z,29.40
2019-04-28T05:58:50.438Z,29.30
2019-04-28T06:01:23.071Z,29.30
2019-04-28T06:03:49.958Z,29.30
2019-04-28T06:06:17.755Z,29.30
2019-04-28T06:08:50.810Z,29.30
2019-04-28T06:11:31.035Z,29.40
2019-04-28T06:13:59.918Z,29.50
2019-04-28T06:16:27.216Z,29.60
2019-04-28T06:18:54.334Z,29.60
2019-04-28T06:21:55.250Z,29.60
2019-04-28T06:24:22.155Z,29.60
2019-04-28T06:26:49.064Z,29.50
2019-04-28T06:29:15.745Z,29.40
2019-04-28T06:31:42.659Z,29.40
2019-04-28T06:34:09.864Z,29.30
2019-04-28T06:36:36.830Z,29.20
2019-04-28T06:39:06.604Z,29.20
2019-04-28T06:41:33.750Z,29.20
2019-04-28T06:44:00.557Z,29.10
2019-04-28T06:46:27.643Z,29.10
2019-04-28T06:48:54.793Z,29.10
2019-04-28T06:51:21.946Z,29.10
2019-04-28T06:53:48.889Z,29.10
2019-04-28T06:56:15.730Z,29.10
2019-04-28T06:58:42.534Z,29.00
2019-04-28T07:01:10.343Z,29.10
2019-04-28T07:03:37.345Z,29.10
2019-04-28T07:06:08.020Z,29.30
2019-04-28T07:08:35.106Z,29.30
2019-04-28T07:11:01.913Z,29.30
2019-04-28T07:13:28.969Z,29.30
2019-04-28T07:15:56.050Z,29.40
2019-04-28T07:18:22.986Z,29.40
2019-04-28T07:20:51.714Z,29.40
2019-04-28T07:23:19.754Z,29.40
2019-04-28T07:25:46.665Z,29.50
2019-04-28T07:28:13.627Z,29.50
2019-04-28T07:30:41.203Z,29.50
2019-04-28T07:33:08.139Z,29.60
2019-04-28T07:35:35.162Z,29.70
2019-04-28T07:38:02.633Z,29.80
2019-04-28T07:40:29.776Z,29.80
2019-04-28T07:42:56.644Z,29.90
2019-04-28T07:45:23.561Z,29.90
2019-04-28T07:47:50.744Z,29.90
2019-04-28T07:50:17.710Z,29.90
2019-04-28T07:52:58.455Z,29.90
2019-04-28T07:55:26.306Z,30.00
2019-04-28T07:57:53.474Z,30.00
2019-04-28T08:00:28.082Z,30.10
2019-04-28T08:02:55.549Z,30.10
2019-04-28T08:05:22.371Z,30.20
2019-04-28T08:07:49.460Z,30.30
2019-04-28T08:10:16.366Z,30.40
2019-04-28T08:12:43.528Z,30.50
2019-04-28T08:15:11.107Z,30.60
2019-04-28T08:17:38.092Z,30.50
2019-04-28T08:20:05.861Z,30.50
2019-04-28T08:22:33.985Z,30.40
2019-04-28T08:25:01.155Z,30.30
2019-04-28T08:27:28.646Z,30.30
2019-04-28T08:29:58.709Z,30.20
2019-04-28T08:32:29.494Z,30.20
2019-04-28T08:34:56.276Z,30.30
2019-04-28T08:37:23.328Z,30.30
2019-04-28T08:39:52.017Z,30.30
2019-04-28T08:42:19.585Z,30.30
2019-04-28T08:44:46.937Z,30.20
2019-04-28T08:47:14.303Z,30.10
2019-04-28T08:49:42.159Z,29.90
2019-04-28T08:52:09.065Z,29.80
2019-04-28T08:54:36.827Z,29.70
2019-04-28T08:57:03.926Z,29.70
2019-04-28T08:59:30.982Z,29.60
2019-04-28T09:02:00.036Z,29.60
2019-04-28T09:04:28.363Z,29.50
2019-04-28T09:06:55.403Z,29.50
2019-04-28T09:09:23.971Z,29.50
2019-04-28T09:11:51.141Z,29.60
2019-04-28T09:14:18.192Z,29.70
2019-04-28T09:16:45.320Z,29.70
2019-04-28T09:19:12.370Z,29.90
2019-04-28T09:21:39.423Z,30.00
2019-04-28T09:24:06.578Z,30.10
2019-04-28T09:26:36.890Z,30.30
2019-04-28T09:29:03.023Z,30.40
2019-04-28T09:31:30.069Z,30.60
2019-04-28T09:33:57.088Z,30.90
2019-04-28T09:36:27.154Z,31.00
2019-04-28T09:38:54.395Z,31.20
2019-04-28T09:41:21.313Z,31.20
2019-04-28T09:44:05.122Z,31.20
2019-04-28T09:46:39.943Z,31.20
2019-04-28T09:49:06.909Z,31.10
2019-04-28T09:51:33.916Z,31.10
2019-04-28T09:54:00.850Z,31.10
2019-04-28T09:56:28.075Z,31.10
2019-04-28T09:58:56.179Z,31.10
2019-04-28T10:01:24.152Z,31.10
2019-04-28T10:03:51.844Z,31.10
2019-04-28T10:06:19.402Z,31.10
2019-04-28T10:08:46.829Z,31.10
2019-04-28T10:11:14.902Z,31.00
2019-04-28T10:13:43.304Z,30.90
2019-04-28T10:16:10.531Z,30.80
2019-04-28T10:18:38.605Z,30.70
2019-04-28T10:21:08.623Z,30.60
2019-04-28T10:23:35.881Z,30.60
2019-04-28T10:26:03.647Z,30.60
2019-04-28T10:28:30.834Z,30.60
2019-04-28T10:30:57.953Z,30.60
2019-04-28T10:33:25.096Z,30.60
2019-04-28T10:35:52.551Z,30.60
2019-04-28T10:38:19.709Z,30.70
2019-04-28T10:41:00.991Z,30.70
2019-04-28T10:43:28.036Z,30.70
2019-04-28T10:45:55.094Z,30.80
2019-04-28T10:48:22.456Z,30.80
2019-04-28T10:50:49.601Z,30.90
2019-04-28T10:53:17.049Z,30.90
2019-04-28T10:55:44.410Z,30.80
2019-04-28T10:58:11.561Z,30.80
2019-04-28T11:00:40.267Z,30.80
2019-04-28T11:03:07.502Z,30.90
2019-04-28T11:05:36.447Z,31.00
2019-04-28T11:08:05.485Z,31.00
2019-04-28T11:10:32.536Z,30.90
2019-04-28T11:12:59.580Z,30.80
2019-04-28T11:15:31.417Z,30.80
2019-04-28T11:17:59.135Z,30.80
2019-04-28T11:20:26.423Z,30.80
2019-04-28T11:22:53.641Z,30.80
2019-04-28T11:25:20.762Z,30.80
2019-04-28T11:27:47.919Z,30.80
2019-04-28T11:30:16.806Z,30.80
2019-04-28T11:32:46.005Z,30.80
2019-04-28T11:35:24.580Z,30.80
2019-04-28T11:37:51.674Z,30.80
2019-04-28T11:40:18.624Z,30.80
2019-04-28T11:42:45.820Z,30.80
2019-04-28T11:45:13.032Z,30.70
2019-04-28T11:47:40.305Z,30.60
2019-04-28T11:50:08.796Z,30.50
2019-04-28T11:52:35.922Z,30.50
2019-04-28T11:55:04.725Z,30.40
2019-04-28T11:57:31.689Z,30.40
2019-04-28T11:59:58.800Z,30.40
2019-04-28T12:02:25.872Z,30.30
2019-04-28T12:04:54.839Z,30.20
2019-04-28T12:07:21.989Z,30.20
2019-04-28T12:10:03.781Z,30.10
2019-04-28T12:12:31.202Z,30.10
2019-04-28T12:15:16.517Z,30.20
2019-04-28T12:17:45.728Z,30.20
2019-04-28T12:20:20.686Z,30.30
2019-04-28T12:22:47.803Z,30.40
2019-04-28T12:25:14.953Z,30.40
2019-04-28T12:27:42.212Z,30.30
2019-04-28T12:30:09.771Z,30.30
2019-04-28T12:32:36.713Z,30.20
2019-04-28T12:35:04.490Z,30.20
2019-04-28T12:37:32.207Z,30.20
2019-04-28T12:39:59.197Z,30.10
2019-04-28T12:42:27.611Z,30.10
2019-04-28T12:44:54.535Z,30.00
2019-04-28T12:47:21.594Z,29.90
2019-04-28T12:49:59.980Z,29.90
2019-04-28T12:52:27.572Z,29.90
2019-04-28T12:54:54.486Z,29.90
2019-04-28T12:57:22.267Z,30.00
2019-04-28T12:59:57.272Z,30.00
2019-04-28T13:02:43.305Z,30.00
2019-04-28T13:05:12.575Z,29.90
2019-04-28T13:07:39.732Z,29.80
2019-04-28T13:10:07.015Z,29.80
2019-04-28T13:12:34.188Z,29.70
2019-04-28T13:15:01.303Z,29.70
2019-04-28T13:17:29.513Z,29.80
2019-04-28T13:19:56.613Z,29.80
2019-04-28T13:22:23.688Z,29.80
2019-04-28T13:24:51.172Z,29.80
2019-04-28T13:27:18.137Z,29.80
2019-04-28T13:29:46.993Z,29.80
2019-04-28T13:32:13.910Z,29.80
2019-04-28T13:34:40.980Z,29.80
2019-04-28T13:37:08.107Z,29.80
2019-04-28T13:39:45.906Z,29.80
2019-04-28T13:42:12.854Z,29.70
2019-04-28T13:44:53.547Z,29.70
2019-04-28T13:47:21.311Z,29.70
2019-04-28T13:49:53.282Z,29.70
2019-04-28T13:52:20.030Z,29.70
2019-04-28T13:54:49.261Z,29.70
2019-04-28T13:57:16.851Z,29.70
2019-04-28T13:59:45.317Z,29.60
2019-04-28T14:02:14.783Z,29.60
2019-04-28T14:04:46.130Z,29.60
2019-04-28T14:07:13.096Z,29.60
2019-04-28T14:09:40.295Z,29.60
2019-04-28T14:12:08.261Z,29.60
2019-04-28T14:14:35.492Z,29.70
2019-04-28T14:17:02.418Z,29.70
2019-04-28T14:19:30.702Z,29.70
2019-04-28T14:21:57.830Z,29.80
2019-04-28T14:24:24.894Z,29.90
2019-04-28T14:26:51.929Z,29.90
2019-04-28T14:29:18.933Z,29.90
2019-04-28T14:31:45.979Z,29.90
2019-04-28T14:34:14.109Z,29.90
2019-04-28T14:36:43.170Z,29.80
2019-04-28T14:39:10.688Z,29.80
2019-04-28T14:41:39.810Z,29.90
2019-04-28T14:44:06.988Z,29.80
2019-04-28T14:46:33.874Z,29.90
2019-04-28T14:49:01.006Z,29.80
2019-04-28T14:51:28.120Z,29.80
2019-04-28T14:53:55.560Z,29.80
2019-04-28T14:56:22.508Z,29.70
2019-04-28T14:58:49.690Z,29.70
2019-04-28T15:01:21.838Z,29.70
2019-04-28T15:03:51.384Z,29.70
2019-04-28T15:06:20.456Z,29.60
2019-04-28T15:08:49.731Z,29.50
2019-04-28T15:11:21.291Z,29.50
2019-04-28T15:13:50.501Z,29.50
2019-04-28T15:16:18.160Z,29.50
2019-04-28T15:18:45.321Z,29.50
2019-04-28T15:21:13.659Z,29.50
2019-04-28T15:23:40.749Z,29.50
2019-04-28T15:26:07.808Z,29.50
2019-04-28T15:28:34.720Z,29.40
2019-04-28T15:31:01.712Z,29.40
2019-04-28T15:33:28.759Z,29.40
2019-04-28T15:35:56.689Z,29.40
2019-04-28T15:38:24.023Z,29.30
2019-04-28T15:40:51.395Z,29.20
2019-04-28T15:43:18.571Z,29.30
2019-04-28T15:45:45.636Z,29.30
2019-04-28T15:48:12.795Z,29.30
2019-04-28T15:50:40.640Z,29.40
2019-04-28T15:53:08.174Z,29.40
2019-04-28T15:55:54.114Z,29.50
2019-04-28T15:58:35.663Z,29.50
2019-04-28T16:01:03.576Z,29.50
2019-04-28T16:03:30.548Z,29.50
2019-04-28T16:05:59.879Z,29.60
2019-04-28T16:08:26.662Z,29.60
2019-04-28T16:10:54.279Z,29.60
2019-04-28T16:13:21.642Z,29.60
2019-04-28T16:15:50.915Z,29.50
2019-04-28T16:18:18.878Z,29.50
2019-04-28T16:20:47.671Z,29.50
2019-04-28T16:23:15.048Z,29.40
2019-04-28T16:25:42.207Z,29.40
2019-04-28T16:28:09.363Z,29.40
2019-04-28T16:30:37.043Z,29.40
2019-04-28T16:33:04.721Z,29.30
2019-04-28T16:35:32.249Z,29.30
2019-04-28T16:37:59.911Z,29.30
2019-04-28T16:40:28.488Z,29.20
2019-04-28T16:42:59.842Z,29.30
2019-04-28T16:45:27.814Z,29.30
2019-04-28T16:47:54.959Z,29.30
2019-04-28T16:50:22.419Z,29.20
2019-04-28T16:52:50.071Z,29.20
2019-04-28T16:55:30.362Z,29.20
2019-04-28T16:58:17.663Z,29.20
2019-04-28T17:00:46.763Z,29.20
2019-04-28T17:03:14.431Z,29.30
2019-04-28T17:05:41.711Z,29.30
2019-04-28T17:08:09.300Z,29.30
2019-04-28T17:10:36.693Z,29.30
2019-04-28T17:13:03.949Z,29.20
2019-04-28T17:15:32.121Z,29.20
2019-04-28T17:17:59.685Z,29.20
2019-04-28T17:20:27.051Z,29.20
2019-04-28T17:22:54.408Z,29.20
2019-04-28T17:25:21.487Z,29.30
2019-04-28T17:27:49.222Z,29.30
2019-04-28T17:30:17.808Z,29.30
2019-04-28T17:32:45.673Z,29.30
2019-04-28T17:35:13.117Z,29.30
2019-04-28T17:37:41.871Z,29.30
2019-04-28T17:40:09.261Z,29.30
2019-04-28T17:42:37.337Z,29.30
2019-04-28T17:45:06.640Z,29.30
2019-04-28T17:47:34.097Z,29.30
2019-04-28T17:50:01.559Z,29.20
2019-04-28T17:52:30.549Z,29.20
2019-04-28T17:54:58.019Z,29.20
2019-04-28T17:57:25.874Z,29.20
2019-04-28T17:59:55.420Z,29.20
2019-04-28T18:02:27.839Z,29.20
2019-04-28T18:05:08.837Z,29.20
2019-04-28T18:07:37.925Z,29.30
2019-04-28T18:14:05.107Z,29.20
2019-04-28T18:16:33.998Z,29.30
2019-04-28T18:19:03.103Z,29.30
2019-04-28T18:21:30.355Z,29.20
2019-04-28T18:23:58.747Z,29.20
2019-04-28T18:26:25.609Z,29.20
2019-04-28T18:28:52.946Z,29.20
2019-04-28T18:31:38.341Z,29.20
2019-04-28T18:34:13.183Z,29.10
2019-04-28T18:36:45.406Z,29.10
2019-04-28T18:39:31.766Z,29.10
2019-04-28T18:42:20.109Z,29.10
2019-04-28T18:44:47.672Z,29.00
2019-04-28T18:47:15.504Z,29.10
2019-04-28T18:49:42.639Z,29.00
2019-04-28T18:52:09.793Z,29.00
2019-04-28T18:54:37.457Z,29.00
2019-04-28T18:57:05.703Z,29.00
2019-04-28T18:59:34.142Z,29.00
2019-04-28T19:02:13.936Z,29.00
2019-04-28T19:04:41.824Z,29.00
2019-04-28T19:07:11.628Z,29.00
2019-04-28T19:09:47.122Z,29.00
2019-04-28T19:12:25.705Z,29.00
2019-04-28T19:14:57.995Z,29.00
2019-04-28T19:17:30.450Z,29.00
2019-04-28T19:19:59.487Z,28.90
2019-04-28T19:22:28.491Z,28.90
2019-04-28T19:24:55.898Z,29.00
2019-04-28T19:27:23.465Z,28.90
2019-04-28T19:29:51.411Z,28.90
2019-04-28T19:32:19.745Z,28.90
2019-04-28T19:34:48.145Z,29.00
2019-04-28T19:37:15.962Z,29.00
2019-04-28T19:39:43.414Z,29.00
2019-04-28T19:42:12.125Z,29.00
2019-04-28T19:44:40.633Z,29.00
2019-04-28T19:47:09.083Z,28.90
2019-04-28T19:49:38.209Z,29.00
2019-04-28T19:52:05.823Z,29.00
2019-04-28T19:54:35.581Z,29.00
2019-04-28T19:57:14.573Z,29.00
2019-04-28T19:59:56.642Z,29.00
2019-04-28T20:02:25.369Z,29.00
2019-04-28T20:04:53.133Z,29.00
2019-04-28T20:07:21.591Z,29.10
2019-04-28T20:09:49.820Z,29.10
2019-04-28T20:12:17.826Z,29.10
2019-04-28T20:14:46.136Z,29.10
2019-04-28T20:17:14.422Z,29.10
2019-04-28T20:19:42.840Z,29.00
2019-04-28T20:22:13.527Z,29.00
2019-04-28T20:24:47.316Z,29.00
2019-04-28T20:27:13.959Z,29.10
2019-04-28T20:29:42.534Z,29.10
2019-04-28T20:32:10.787Z,29.10
2019-04-28T20:34:38.707Z,29.10
2019-04-28T20:37:22.749Z,29.10
2019-04-28T20:39:52.870Z,29.20
2019-04-28T20:42:38.712Z,29.20
2019-04-28T20:45:08.754Z,29.30
2019-04-28T20:47:36.758Z,29.30
2019-04-28T20:50:05.779Z,29.30
2019-04-28T20:52:33.193Z,29.30
2019-04-28T20:55:00.650Z,29.30
2019-04-28T20:57:28.004Z,29.30
2019-04-28T20:59:55.667Z,29.40
2019-04-28T21:02:23.123Z,29.30
2019-04-28T21:04:50.171Z,29.30
2019-04-28T21:07:17.958Z,29.30
2019-04-28T21:09:44.950Z,29.30
2019-04-28T21:12:13.088Z,29.30
2019-04-28T21:14:40.237Z,29.30
2019-04-28T21:17:07.980Z,29.20
2019-04-28T21:19:35.244Z,29.20
2019-04-28T21:22:02.349Z,29.20
2019-04-28T21:24:29.659Z,29.20
2019-04-28T21:26:56.584Z,29.20
2019-04-28T21:29:23.572Z,29.20
2019-04-28T21:31:50.767Z,29.10
2019-04-28T21:34:17.831Z,29.10
2019-04-28T21:36:45.019Z,29.00
2019-04-28T21:39:12.645Z,28.90
2019-04-28T21:41:39.712Z,28.90
2019-04-28T21:44:09.097Z,28.80
2019-04-28T21:46:41.024Z,28.80
2019-04-28T21:49:13.369Z,28.80
2019-04-28T21:51:40.378Z,28.80
2019-04-28T21:54:07.880Z,28.80
2019-04-28T21:56:35.445Z,28.70
2019-04-28T21:59:02.650Z,28.70
2019-04-28T22:01:30.170Z,28.70
2019-04-28T22:03:57.682Z,28.70
2019-04-28T22:06:25.134Z,28.70
2019-04-28T22:08:53.368Z,28.70
2019-04-28T22:11:21.631Z,28.70
2019-04-28T22:13:50.040Z,28.70
2019-04-28T22:16:18.155Z,28.80
2019-04-28T22:18:46.575Z,28.90
2019-04-28T22:21:14.932Z,28.90
2019-04-28T22:23:46.549Z,29.00
2019-04-28T22:26:15.570Z,29.10
2019-04-28T22:28:43.117Z,29.10
2019-04-28T22:31:11.828Z,29.10
2019-04-28T22:33:39.767Z,29.20
2019-04-28T22:36:07.791Z,29.20
2019-04-28T22:38:35.398Z,29.10
2019-04-28T22:41:02.652Z,29.10
2019-04-28T22:43:29.668Z,29.00
2019-04-28T22:45:56.656Z,29.00
2019-04-28T22:48:25.533Z,28.90
2019-04-28T22:50:53.609Z,28.90
2019-04-28T22:53:22.414Z,28.90
2019-04-28T22:55:51.148Z,28.90
2019-04-28T22:58:35.354Z,28.90
2019-04-28T23:01:07.110Z,29.00
2019-04-28T23:03:39.283Z,29.10
2019-04-28T23:06:06.415Z,29.10
2019-04-28T23:08:33.500Z,29.10
2019-04-28T23:11:00.679Z,29.10
2019-04-28T23:13:28.043Z,29.10
2019-04-28T23:15:58.484Z,29.00
2019-04-28T23:18:25.780Z,29.00
2019-04-28T23:20:58.294Z,28.90
2019-04-28T23:23:25.801Z,28.90
2019-04-28T23:25:53.248Z,28.90
2019-04-28T23:28:20.911Z,28.90
2019-04-28T23:30:47.959Z,28.90
2019-04-28T23:33:14.762Z,28.90
2019-04-28T23:35:41.885Z,29.00
2019-04-28T23:38:08.898Z,29.00
2019-04-28T23:40:38.012Z,29.00
2019-04-28T23:43:07.171Z,29.00
2019-04-28T23:45:34.660Z,29.00
2019-04-28T23:48:02.008Z,29.00
2019-04-28T23:50:36.813Z,29.00
2019-04-28T23:53:05.733Z,29.00
2019-04-28T23:55:32.524Z,29.00
2019-04-28T23:57:59.766Z,29.00
